sensor_id;sensor_type;location;lat;lon;timestamp;P1;durP1;ratioP1;P2;durP2;ratioP2
43154;SDS011;34212;51.018;13.586;2023-02-23T00:04:46;14.60;;;10.45;;
43154;SDS011;34212;51.018;13.586;2023-02-23T00:09:48;14.68;;;10.50;;
43154;SDS011;34212;51.018;13.586;2023-02-23T00:14:51;18.63;;;11.57;;
43154;SDS011;34212;51.018;13.586;2023-02-23T00:19:52;17.92;;;12.57;;
43154;SDS011;34212;51.018;13.586;2023-02-23T00:24:54;15.95;;;11.20;;
43154;SDS011;34212;51.018;13.586;2023-02-23T00:29:57;16.38;;;11.75;;
43154;SDS011;34212;51.018;13.586;2023-02-23T00:34:59;17.52;;;10.88;;
43154;SDS011;34212;51.018;13.586;2023-02-23T00:40:01;14.95;;;10.88;;
43154;SDS011;34212;51.018;13.586;2023-02-23T00:50:12;16.13;;;10.55;;
43154;SDS011;34212;51.018;13.586;2023-02-23T00:55:15;16.23;;;10.57;;
43154;SDS011;34212;51.018;13.586;2023-02-23T01:00:16;15.82;;;10.80;;
43154;SDS011;34212;51.018;13.586;2023-02-23T01:05:21;16.08;;;10.18;;
43154;SDS011;34212;51.018;13.586;2023-02-23T01:10:22;14.38;;;9.38;;
43154;SDS011;34212;51.018;13.586;2023-02-23T01:15:24;14.75;;;9.65;;
43154;SDS011;34212;51.018;13.586;2023-02-23T01:20:27;14.57;;;9.88;;
43154;SDS011;34212;51.018;13.586;2023-02-23T01:25:29;13.93;;;9.85;;
43154;SDS011;34212;51.018;13.586;2023-02-23T01:30:33;15.02;;;10.40;;
43154;SDS011;34212;51.018;13.586;2023-02-23T01:35:35;15.02;;;9.70;;
43154;SDS011;34212;51.018;13.586;2023-02-23T01:40:36;14.27;;;9.13;;
43154;SDS011;34212;51.018;13.586;2023-02-23T01:45:43;12.63;;;9.57;;
43154;SDS011;34212;51.018;13.586;2023-02-23T01:55:51;13.65;;;9.18;;
43154;SDS011;34212;51.018;13.586;2023-02-23T02:00:56;13.07;;;9.63;;
43154;SDS011;34212;51.018;13.586;2023-02-23T02:06:03;13.35;;;9.95;;
43154;SDS011;34212;51.018;13.586;2023-02-23T02:11:05;14.70;;;10.20;;
43154;SDS011;34212;51.018;13.586;2023-02-23T02:21:55;15.30;;;10.13;;
43154;SDS011;34212;51.018;13.586;2023-02-23T02:54:22;20.33;;;12.57;;
43154;SDS011;34212;51.018;13.586;2023-02-23T02:59:42;18.52;;;12.30;;
43154;SDS011;34212;51.018;13.586;2023-02-23T03:05:14;21.30;;;13.57;;
43154;SDS011;34212;51.018;13.586;2023-02-23T03:10:48;25.55;;;16.00;;
43154;SDS011;34212;51.018;13.586;2023-02-23T03:16:21;29.40;;;16.90;;
43154;SDS011;34212;51.018;13.586;2023-02-23T03:32:49;18.52;;;12.10;;
43154;SDS011;34212;51.018;13.586;2023-02-23T03:38:18;21.15;;;13.35;;
43154;SDS011;34212;51.018;13.586;2023-02-23T03:43:47;21.38;;;13.93;;
43154;SDS011;34212;51.018;13.586;2023-02-23T03:49:13;21.42;;;14.00;;
43154;SDS011;34212;51.018;13.586;2023-02-23T03:54:38;24.27;;;13.88;;
43154;SDS011;34212;51.018;13.586;2023-02-23T04:00:05;20.30;;;13.43;;
43154;SDS011;34212;51.018;13.586;2023-02-23T04:05:31;21.30;;;12.23;;
43154;SDS011;34212;51.018;13.586;2023-02-23T04:10:57;18.73;;;12.05;;
43154;SDS011;34212;51.018;13.586;2023-02-23T04:16:28;19.17;;;11.32;;
43154;SDS011;34212;51.018;13.586;2023-02-23T04:21:32;19.88;;;12.40;;
43154;SDS011;34212;51.018;13.586;2023-02-23T04:26:33;14.65;;;10.77;;
43154;SDS011;34212;51.018;13.586;2023-02-23T04:31:35;15.85;;;11.27;;
43154;SDS011;34212;51.018;13.586;2023-02-23T04:36:36;15.32;;;9.93;;
43154;SDS011;34212;51.018;13.586;2023-02-23T04:41:38;14.63;;;10.35;;
43154;SDS011;34212;51.018;13.586;2023-02-23T04:46:39;18.10;;;10.93;;
43154;SDS011;34212;51.018;13.586;2023-02-23T04:51:41;15.93;;;10.80;;
43154;SDS011;34212;51.018;13.586;2023-02-23T04:56:42;22.50;;;13.95;;
43154;SDS011;34212;51.018;13.586;2023-02-23T05:01:43;20.25;;;13.57;;
43154;SDS011;34212;51.018;13.586;2023-02-23T05:06:45;24.08;;;14.75;;
43154;SDS011;34212;51.018;13.586;2023-02-23T05:11:46;21.90;;;14.65;;
43154;SDS011;34212;51.018;13.586;2023-02-23T05:16:48;21.95;;;13.73;;
43154;SDS011;34212;51.018;13.586;2023-02-23T05:21:49;19.98;;;13.43;;
43154;SDS011;34212;51.018;13.586;2023-02-23T05:26:51;23.08;;;14.48;;
43154;SDS011;34212;51.018;13.586;2023-02-23T05:31:53;26.67;;;15.80;;
43154;SDS011;34212;51.018;13.586;2023-02-23T05:36:55;20.55;;;13.45;;
43154;SDS011;34212;51.018;13.586;2023-02-23T05:41:57;24.00;;;14.70;;
43154;SDS011;34212;51.018;13.586;2023-02-23T05:46:58;23.85;;;13.95;;
43154;SDS011;34212;51.018;13.586;2023-02-23T05:52:00;21.55;;;14.55;;
43154;SDS011;34212;51.018;13.586;2023-02-23T05:57:01;24.67;;;14.05;;
43154;SDS011;34212;51.018;13.586;2023-02-23T06:02:02;19.83;;;12.45;;
43154;SDS011;34212;51.018;13.586;2023-02-23T06:07:07;20.33;;;11.95;;
43154;SDS011;34212;51.018;13.586;2023-02-23T06:12:08;20.02;;;12.73;;
43154;SDS011;34212;51.018;13.586;2023-02-23T06:17:10;26.67;;;14.20;;
43154;SDS011;34212;51.018;13.586;2023-02-23T06:22:11;23.10;;;13.45;;
43154;SDS011;34212;51.018;13.586;2023-02-23T06:27:13;14.30;;;10.02;;
43154;SDS011;34212;51.018;13.586;2023-02-23T06:32:14;18.17;;;11.95;;
43154;SDS011;34212;51.018;13.586;2023-02-23T06:37:20;14.27;;;9.63;;
43154;SDS011;34212;51.018;13.586;2023-02-23T06:42:22;14.45;;;9.43;;
43154;SDS011;34212;51.018;13.586;2023-02-23T06:47:23;16.23;;;10.50;;
43154;SDS011;34212;51.018;13.586;2023-02-23T06:52:25;18.75;;;11.25;;
43154;SDS011;34212;51.018;13.586;2023-02-23T06:57:27;16.48;;;11.27;;
43154;SDS011;34212;51.018;13.586;2023-02-23T07:02:28;25.80;;;11.32;;
43154;SDS011;34212;51.018;13.586;2023-02-23T07:07:30;12.43;;;8.93;;
43154;SDS011;34212;51.018;13.586;2023-02-23T07:12:33;13.35;;;8.77;;
43154;SDS011;34212;51.018;13.586;2023-02-23T07:17:34;14.02;;;8.52;;
43154;SDS011;34212;51.018;13.586;2023-02-23T07:22:36;13.83;;;7.80;;
43154;SDS011;34212;51.018;13.586;2023-02-23T07:27:40;12.60;;;7.88;;
43154;SDS011;34212;51.018;13.586;2023-02-23T07:32:42;13.97;;;8.60;;
43154;SDS011;34212;51.018;13.586;2023-02-23T07:37:43;14.55;;;10.63;;
43154;SDS011;34212;51.018;13.586;2023-02-23T07:42:45;15.82;;;10.45;;
43154;SDS011;34212;51.018;13.586;2023-02-23T07:47:47;12.45;;;9.15;;
43154;SDS011;34212;51.018;13.586;2023-02-23T07:52:49;14.25;;;10.48;;
43154;SDS011;34212;51.018;13.586;2023-02-23T07:57:51;18.30;;;11.63;;
43154;SDS011;34212;51.018;13.586;2023-02-23T08:02:53;19.08;;;12.82;;
43154;SDS011;34212;51.018;13.586;2023-02-23T08:07:54;19.40;;;14.18;;
43154;SDS011;34212;51.018;13.586;2023-02-23T08:12:57;18.02;;;13.43;;
43154;SDS011;34212;51.018;13.586;2023-02-23T08:18:00;16.88;;;12.02;;
43154;SDS011;34212;51.018;13.586;2023-02-23T08:23:01;18.92;;;13.57;;
43154;SDS011;34212;51.018;13.586;2023-02-23T08:28:03;19.65;;;13.55;;
43154;SDS011;34212;51.018;13.586;2023-02-23T08:33:06;20.05;;;12.95;;
43154;SDS011;34212;51.018;13.586;2023-02-23T08:38:08;19.08;;;12.52;;
43154;SDS011;34212;51.018;13.586;2023-02-23T08:43:09;17.48;;;12.40;;
43154;SDS011;34212;51.018;13.586;2023-02-23T08:48:11;17.40;;;12.23;;
43154;SDS011;34212;51.018;13.586;2023-02-23T08:53:12;16.65;;;11.32;;
43154;SDS011;34212;51.018;13.586;2023-02-23T08:58:14;19.80;;;13.38;;
43154;SDS011;34212;51.018;13.586;2023-02-23T09:03:16;21.88;;;14.57;;
43154;SDS011;34212;51.018;13.586;2023-02-23T09:08:18;20.70;;;15.07;;
43154;SDS011;34212;51.018;13.586;2023-02-23T09:13:19;20.77;;;13.57;;
43154;SDS011;34212;51.018;13.586;2023-02-23T09:18:21;27.35;;;14.75;;
43154;SDS011;34212;51.018;13.586;2023-02-23T09:23:26;25.58;;;15.38;;
43154;SDS011;34212;51.018;13.586;2023-02-23T09:28:28;22.13;;;12.63;;
43154;SDS011;34212;51.018;13.586;2023-02-23T09:33:31;22.02;;;13.05;;
43154;SDS011;34212;51.018;13.586;2023-02-23T09:38:33;17.48;;;11.73;;
43154;SDS011;34212;51.018;13.586;2023-02-23T09:43:36;19.55;;;14.48;;
43154;SDS011;34212;51.018;13.586;2023-02-23T09:48:42;25.63;;;14.50;;
43154;SDS011;34212;51.018;13.586;2023-02-23T09:53:51;26.42;;;15.93;;
43154;SDS011;34212;51.018;13.586;2023-02-23T09:58:55;28.45;;;16.40;;
43154;SDS011;34212;51.018;13.586;2023-02-23T10:14:29;25.20;;;15.63;;
43154;SDS011;34212;51.018;13.586;2023-02-23T10:25:26;24.67;;;14.82;;
43154;SDS011;34212;51.018;13.586;2023-02-23T10:30:32;20.85;;;14.82;;
43154;SDS011;34212;51.018;13.586;2023-02-23T10:35:34;31.45;;;16.00;;
43154;SDS011;34212;51.018;13.586;2023-02-23T10:40:38;22.55;;;15.25;;
43154;SDS011;34212;51.018;13.586;2023-02-23T10:45:45;20.92;;;13.98;;
43154;SDS011;34212;51.018;13.586;2023-02-23T10:50:49;17.77;;;12.32;;
43154;SDS011;34212;51.018;13.586;2023-02-23T10:56:14;18.25;;;11.75;;
43154;SDS011;34212;51.018;13.586;2023-02-23T11:01:33;9.55;;;7.35;;
43154;SDS011;34212;51.018;13.586;2023-02-23T11:06:44;9.55;;;7.60;;
43154;SDS011;34212;51.018;13.586;2023-02-23T11:17:31;11.55;;;8.13;;
43154;SDS011;34212;51.018;13.586;2023-02-23T11:22:35;13.73;;;8.40;;
43154;SDS011;34212;51.018;13.586;2023-02-23T11:27:44;11.32;;;8.32;;
43154;SDS011;34212;51.018;13.586;2023-02-23T11:32:52;9.52;;;7.47;;
43154;SDS011;34212;51.018;13.586;2023-02-23T11:37:56;13.77;;;8.40;;
43154;SDS011;34212;51.018;13.586;2023-02-23T11:48:14;11.68;;;8.80;;
43154;SDS011;34212;51.018;13.586;2023-02-23T12:03:53;13.55;;;9.57;;
43154;SDS011;34212;51.018;13.586;2023-02-23T12:14:21;13.90;;;10.20;;
43154;SDS011;34212;51.018;13.586;2023-02-23T12:19:33;13.25;;;9.15;;
43154;SDS011;34212;51.018;13.586;2023-02-23T12:24:47;11.73;;;8.88;;
43154;SDS011;34212;51.018;13.586;2023-02-23T12:34:59;13.60;;;9.73;;
43154;SDS011;34212;51.018;13.586;2023-02-23T12:40:10;14.60;;;9.00;;
43154;SDS011;34212;51.018;13.586;2023-02-23T12:45:40;12.00;;;9.93;;
43154;SDS011;34212;51.018;13.586;2023-02-23T12:50:47;12.90;;;9.88;;
43154;SDS011;34212;51.018;13.586;2023-02-23T13:01:28;13.15;;;10.23;;
43154;SDS011;34212;51.018;13.586;2023-02-23T13:17:35;15.07;;;11.13;;
43154;SDS011;34212;51.018;13.586;2023-02-23T13:27:57;13.45;;;11.10;;
43154;SDS011;34212;51.018;13.586;2023-02-23T13:33:01;17.40;;;11.05;;
43154;SDS011;34212;51.018;13.586;2023-02-23T13:43:24;12.85;;;10.13;;
43154;SDS011;34212;51.018;13.586;2023-02-23T13:48:54;13.90;;;11.20;;
43154;SDS011;34212;51.018;13.586;2023-02-23T13:54:04;15.32;;;11.25;;
43154;SDS011;34212;51.018;13.586;2023-02-23T13:59:07;14.23;;;10.65;;
43154;SDS011;34212;51.018;13.586;2023-02-23T14:04:26;13.52;;;10.98;;
43154;SDS011;34212;51.018;13.586;2023-02-23T14:09:46;14.98;;;11.10;;
43154;SDS011;34212;51.018;13.586;2023-02-23T14:14:54;21.52;;;14.57;;
43154;SDS011;34212;51.018;13.586;2023-02-23T14:30:45;22.95;;;15.82;;
43154;SDS011;34212;51.018;13.586;2023-02-23T14:35:51;23.17;;;16.95;;
43154;SDS011;34212;51.018;13.586;2023-02-23T14:40:54;26.98;;;16.40;;
43154;SDS011;34212;51.018;13.586;2023-02-23T14:45:56;29.93;;;16.83;;
43154;SDS011;34212;51.018;13.586;2023-02-23T14:51:12;28.17;;;17.08;;
43154;SDS011;34212;51.018;13.586;2023-02-23T14:56:46;25.30;;;18.00;;
43154;SDS011;34212;51.018;13.586;2023-02-23T15:01:50;26.25;;;17.98;;
43154;SDS011;34212;51.018;13.586;2023-02-23T15:06:53;29.63;;;19.00;;
43154;SDS011;34212;51.018;13.586;2023-02-23T15:11:58;23.27;;;17.92;;
43154;SDS011;34212;51.018;13.586;2023-02-23T15:17:03;27.52;;;18.95;;
43154;SDS011;34212;51.018;13.586;2023-02-23T15:22:06;26.73;;;18.42;;
43154;SDS011;34212;51.018;13.586;2023-02-23T15:27:17;25.55;;;18.05;;
43154;SDS011;34212;51.018;13.586;2023-02-23T15:32:24;25.65;;;17.30;;
43154;SDS011;34212;51.018;13.586;2023-02-23T15:42:35;23.92;;;17.17;;
43154;SDS011;34212;51.018;13.586;2023-02-23T15:47:39;27.67;;;17.55;;
43154;SDS011;34212;51.018;13.586;2023-02-23T15:52:44;27.52;;;19.15;;
43154;SDS011;34212;51.018;13.586;2023-02-23T15:57:56;25.85;;;18.40;;
43154;SDS011;34212;51.018;13.586;2023-02-23T16:03:00;30.25;;;19.52;;
43154;SDS011;34212;51.018;13.586;2023-02-23T16:08:16;30.48;;;19.58;;
43154;SDS011;34212;51.018;13.586;2023-02-23T16:13:23;28.75;;;19.38;;
43154;SDS011;34212;51.018;13.586;2023-02-23T16:18:30;29.65;;;20.58;;
43154;SDS011;34212;51.018;13.586;2023-02-23T16:23:40;26.73;;;20.27;;
43154;SDS011;34212;51.018;13.586;2023-02-23T16:28:44;28.48;;;19.92;;
43154;SDS011;34212;51.018;13.586;2023-02-23T16:33:51;31.58;;;21.08;;
43154;SDS011;34212;51.018;13.586;2023-02-23T16:38:58;30.83;;;20.52;;
43154;SDS011;34212;51.018;13.586;2023-02-23T16:44:03;33.65;;;21.92;;
43154;SDS011;34212;51.018;13.586;2023-02-23T16:49:07;31.02;;;21.05;;
43154;SDS011;34212;51.018;13.586;2023-02-23T16:54:12;31.08;;;21.00;;
43154;SDS011;34212;51.018;13.586;2023-02-23T16:59:14;31.80;;;21.65;;
43154;SDS011;34212;51.018;13.586;2023-02-23T17:04:18;28.00;;;19.75;;
43154;SDS011;34212;51.018;13.586;2023-02-23T17:09:21;33.47;;;21.55;;
43154;SDS011;34212;51.018;13.586;2023-02-23T17:14:24;30.08;;;20.30;;
43154;SDS011;34212;51.018;13.586;2023-02-23T17:19:28;31.80;;;21.20;;
43154;SDS011;34212;51.018;13.586;2023-02-23T17:24:29;29.65;;;20.25;;
43154;SDS011;34212;51.018;13.586;2023-02-23T17:29:31;28.40;;;20.33;;
43154;SDS011;34212;51.018;13.586;2023-02-23T17:34:32;33.97;;;22.83;;
43154;SDS011;34212;51.018;13.586;2023-02-23T17:39:34;41.13;;;25.90;;
43154;SDS011;34212;51.018;13.586;2023-02-23T17:44:37;43.28;;;28.13;;
43154;SDS011;34212;51.018;13.586;2023-02-23T17:49:39;41.67;;;27.33;;
43154;SDS011;34212;51.018;13.586;2023-02-23T17:54:40;42.55;;;26.90;;
43154;SDS011;34212;51.018;13.586;2023-02-23T17:59:42;44.83;;;27.75;;
43154;SDS011;34212;51.018;13.586;2023-02-23T18:04:43;43.88;;;26.42;;
43154;SDS011;34212;51.018;13.586;2023-02-23T18:09:45;44.53;;;27.75;;
43154;SDS011;34212;51.018;13.586;2023-02-23T18:14:50;34.13;;;24.83;;
43154;SDS011;34212;51.018;13.586;2023-02-23T18:19:51;44.40;;;26.05;;
43154;SDS011;34212;51.018;13.586;2023-02-23T18:24:53;42.47;;;28.13;;
43154;SDS011;34212;51.018;13.586;2023-02-23T18:29:57;48.47;;;27.60;;
43154;SDS011;34212;51.018;13.586;2023-02-23T18:34:58;42.78;;;25.95;;
43154;SDS011;34212;51.018;13.586;2023-02-23T18:40:00;47.08;;;29.20;;
43154;SDS011;34212;51.018;13.586;2023-02-23T18:45:01;46.05;;;28.73;;
43154;SDS011;34212;51.018;13.586;2023-02-23T18:50:03;51.73;;;31.37;;
43154;SDS011;34212;51.018;13.586;2023-02-23T18:55:06;53.87;;;32.93;;
43154;SDS011;34212;51.018;13.586;2023-02-23T19:00:10;55.15;;;33.58;;
43154;SDS011;34212;51.018;13.586;2023-02-23T19:05:15;47.90;;;29.65;;
43154;SDS011;34212;51.018;13.586;2023-02-23T19:10:19;44.75;;;28.08;;
43154;SDS011;34212;51.018;13.586;2023-02-23T19:15:22;44.38;;;28.15;;
43154;SDS011;34212;51.018;13.586;2023-02-23T19:20:23;42.85;;;24.92;;
43154;SDS011;34212;51.018;13.586;2023-02-23T19:25:27;38.80;;;23.80;;
43154;SDS011;34212;51.018;13.586;2023-02-23T19:30:29;34.13;;;23.83;;
43154;SDS011;34212;51.018;13.586;2023-02-23T19:35:30;48.30;;;28.55;;
43154;SDS011;34212;51.018;13.586;2023-02-23T19:40:32;52.97;;;33.05;;
43154;SDS011;34212;51.018;13.586;2023-02-23T19:45:37;55.25;;;32.58;;
43154;SDS011;34212;51.018;13.586;2023-02-23T19:50:47;61.20;;;30.95;;
43154;SDS011;34212;51.018;13.586;2023-02-23T19:55:59;51.97;;;29.10;;
43154;SDS011;34212;51.018;13.586;2023-02-23T20:01:06;46.22;;;28.77;;
43154;SDS011;34212;51.018;13.586;2023-02-23T20:06:12;40.58;;;23.92;;
43154;SDS011;34212;51.018;13.586;2023-02-23T20:11:15;43.20;;;24.45;;
43154;SDS011;34212;51.018;13.586;2023-02-23T20:16:17;43.47;;;25.13;;
43154;SDS011;34212;51.018;13.586;2023-02-23T20:21:20;43.92;;;24.27;;
43154;SDS011;34212;51.018;13.586;2023-02-23T20:26:27;45.17;;;24.65;;
43154;SDS011;34212;51.018;13.586;2023-02-23T20:31:32;43.03;;;23.95;;
43154;SDS011;34212;51.018;13.586;2023-02-23T20:36:35;40.50;;;23.38;;
43154;SDS011;34212;51.018;13.586;2023-02-23T20:41:37;40.13;;;24.15;;
43154;SDS011;34212;51.018;13.586;2023-02-23T20:46:44;42.88;;;24.73;;
43154;SDS011;34212;51.018;13.586;2023-02-23T20:51:45;51.25;;;26.95;;
43154;SDS011;34212;51.018;13.586;2023-02-23T20:56:48;46.40;;;27.58;;
43154;SDS011;34212;51.018;13.586;2023-02-23T21:01:59;53.60;;;28.98;;
43154;SDS011;34212;51.018;13.586;2023-02-23T21:07:01;51.75;;;28.10;;
43154;SDS011;34212;51.018;13.586;2023-02-23T21:12:08;46.35;;;28.20;;
43154;SDS011;34212;51.018;13.586;2023-02-23T21:17:10;50.28;;;28.40;;
43154;SDS011;34212;51.018;13.586;2023-02-23T21:22:12;48.58;;;28.52;;
43154;SDS011;34212;51.018;13.586;2023-02-23T21:27:16;55.10;;;31.38;;
43154;SDS011;34212;51.018;13.586;2023-02-23T21:32:18;60.83;;;30.20;;
43154;SDS011;34212;51.018;13.586;2023-02-23T21:37:20;57.33;;;31.73;;
43154;SDS011;34212;51.018;13.586;2023-02-23T21:42:21;57.13;;;29.10;;
43154;SDS011;34212;51.018;13.586;2023-02-23T21:47:24;97.63;;;46.15;;
43154;SDS011;34212;51.018;13.586;2023-02-23T21:52:26;134.88;;;50.72;;
43154;SDS011;34212;51.018;13.586;2023-02-23T21:57:30;166.38;;;56.08;;
43154;SDS011;34212;51.018;13.586;2023-02-23T22:02:33;179.30;;;55.95;;
43154;SDS011;34212;51.018;13.586;2023-02-23T22:07:37;227.32;;;56.92;;
43154;SDS011;34212;51.018;13.586;2023-02-23T22:12:39;234.38;;;60.92;;
43154;SDS011;34212;51.018;13.586;2023-02-23T22:17:41;136.25;;;46.33;;
43154;SDS011;34212;51.018;13.586;2023-02-23T22:22:44;160.88;;;49.30;;
43154;SDS011;34212;51.018;13.586;2023-02-23T22:27:46;153.82;;;47.20;;
43154;SDS011;34212;51.018;13.586;2023-02-23T22:32:48;189.65;;;49.95;;
43154;SDS011;34212;51.018;13.586;2023-02-23T22:37:49;197.07;;;45.90;;
43154;SDS011;34212;51.018;13.586;2023-02-23T22:42:51;151.10;;;42.15;;
43154;SDS011;34212;51.018;13.586;2023-02-23T22:47:54;115.00;;;37.90;;
43154;SDS011;34212;51.018;13.586;2023-02-23T22:53:01;133.07;;;39.75;;
43154;SDS011;34212;51.018;13.586;2023-02-23T22:58:03;128.65;;;42.08;;
43154;SDS011;34212;51.018;13.586;2023-02-23T23:03:09;138.30;;;43.50;;
43154;SDS011;34212;51.018;13.586;2023-02-23T23:08:10;151.57;;;47.25;;
43154;SDS011;34212;51.018;13.586;2023-02-23T23:13:13;198.65;;;53.38;;
43154;SDS011;34212;51.018;13.586;2023-02-23T23:18:14;198.98;;;54.78;;
43154;SDS011;34212;51.018;13.586;2023-02-23T23:23:20;206.63;;;56.30;;
43154;SDS011;34212;51.018;13.586;2023-02-23T23:28:26;208.73;;;56.70;;
43154;SDS011;34212;51.018;13.586;2023-02-23T23:33:28;250.35;;;60.08;;
43154;SDS011;34212;51.018;13.586;2023-02-23T23:38:30;268.05;;;57.92;;
43154;SDS011;34212;51.018;13.586;2023-02-23T23:43:33;271.02;;;57.40;;
43154;SDS011;34212;51.018;13.586;2023-02-23T23:48:37;301.75;;;56.63;;
43154;SDS011;34212;51.018;13.586;2023-02-23T23:53:39;267.63;;;51.30;;
43154;SDS011;34212;51.018;13.586;2023-02-23T23:58:40;187.85;;;46.58;;
